KTMB/TMB METAR and TAF weather

Enter ICAO airport designator
Station Type Date Time Source
KTMB METAR 2019/02/22 21:53 UTC NOAA

KTMB 222153Z 12011KT 10SM SCT028 SCT037 28/22 A3012 RMK AO2 SLP197 T02830217


Station Type Date Time Source
KTMB Decoded METAR 2019/02/22 21:53 UTC NOAA

KENDALL-TAMIAMI EXEC AIRPORT , FL, United States (KTMB) 25-39N 080-26W 2M
Feb 22, 2019 - 04:53 PM EST / 2019.02.22 2153 UTC
Wind: from the ESE (120 degrees) at 13 MPH (11 KT):0
Visibility: 10 mile(s):0
Sky conditions: partly cloudy
Temperature: 82.9 F (28.3 C)
Dew Point: 71.1 F (21.7 C)
Relative Humidity: 67%
Pressure (altimeter): 30.12 in. Hg (1019 hPa)
ob: KTMB 222153Z 12011KT 10SM SCT028 SCT037 28/22 A3012 RMK AO2 SLP197 T02830217
cycle: 22

Station Type Date Time Source
KTMB TAF 2019/02/22 21:12 UTC NOAA

TAF
AMD KTMB 222111Z 2221/2318 12012KT P6SM SCT025 BKN060
FM230200 12006KT P6SM SCT020
FM231400 13013KT P6SM SCT030 SCT060


Example: see airport list